Aérodrome :
LOGIN :

S'inscrire | Disclaimer

   EN    FR    IT 

 










Légende :    VFR   VFR Marginal   IFR   IFR Intensif   IFR Très Intensif
Visi : 
Plafond : 
>= 8 km
>= 3000ft
5 à 8 km
1000 à 3000 ft
1500m à 5 km
500 à 1000 ft
800 à 1500m
200 à 500 ft
< 800m
< 200 ft
Symboles :   Orages  Brouillard  Fortes neiges  Fortes précipitations  Vent > 20 kt
SIGMETs :   Divers  Orages  Givrage  Turbulence  Onde Orograph.  Cendres Volcan.






- Altitude de l'aérodrome : 147 ft
- Code IATA : DUS


EDDL - Düsseldorf Int.

DERNIER METAR :
  • 301520Z 05011KT 020V080 CAVOK 23/03 Q1022 NOSIG

METARs EXPIRÉS :
  • 301450Z 05012KT 360V080 CAVOK 23/02 Q1022 NOSIG
  • 301420Z 04010KT 010V100 CAVOK 24/01 Q1022 NOSIG
  • 301350Z 05009G19KT 360V100 CAVOK 23/02 Q1022 NOSIG
  • 301320Z 06012KT 360V100 CAVOK 24/04 Q1022 NOSIG
  • 301250Z 05010KT 020V080 CAVOK 24/04 Q1023 NOSIG

TAF TAF EDDL
Valide du 30 à 12h jusqu'au 31 à 18h UTC


301100Z 3012/3118 06012KT CAVOK
BECMG 3019/3022 04005KT
BECMG 3106/3109 05011KT



MET'MAP, la Météo Aéronautique d'un coup d'oeil ! - Copyright ORBIFLY Décembre 2007 - Disclaimer

ORBIFLY MET'MAP TEAM :

Programmation & Développement : Alexandra Zaïnal
Sur une idée originale de : Baudouin d'Aumeries
Assistance à la programmation : Marc-Olivier Méhu
Soutien technique & logistique : Manuel Goepfert

Contact : metmap@orbifly.com




SOURCES & CREDITS :

   NOAA